sensor_id;sensor_type;location;lat;lon;timestamp;temperature;humidity
69677;DHT22;56914;51.058;9.326;2023-01-19T10:12:55;5.40;68.70
69677;DHT22;56914;51.058;9.326;2023-01-19T22:23:40;6.60;65.30
69677;DHT22;56914;51.058;9.326;2023-01-19T22:24:44;6.60;65.20
69677;DHT22;56914;51.058;9.326;2023-01-19T22:25:47;6.60;65.10
69677;DHT22;56914;51.058;9.326;2023-01-19T22:26:49;6.60;65.20
69677;DHT22;56914;51.058;9.326;2023-01-19T22:27:53;6.60;65.30
69677;DHT22;56914;51.058;9.326;2023-01-19T22:28:56;6.70;65.30
69677;DHT22;56914;51.058;9.326;2023-01-19T22:29:59;6.70;65.30
69677;DHT22;56914;51.058;9.326;2023-01-19T22:31:03;6.70;65.20
69677;DHT22;56914;51.058;9.326;2023-01-19T22:32:07;6.70;65.10
69677;DHT22;56914;51.058;9.326;2023-01-19T22:33:10;6.70;65.10
69677;DHT22;56914;51.058;9.326;2023-01-19T22:34:12;6.80;65.20
69677;DHT22;56914;51.058;9.326;2023-01-19T22:35:17;6.80;65.10
69677;DHT22;56914;51.058;9.326;2023-01-19T22:36:22;6.80;65.10
69677;DHT22;56914;51.058;9.326;2023-01-19T22:37:25;6.80;65.10
69677;DHT22;56914;51.058;9.326;2023-01-19T22:38:27;6.80;65.00
69677;DHT22;56914;51.058;9.326;2023-01-19T22:39:32;6.90;64.90
69677;DHT22;56914;51.058;9.326;2023-01-19T22:40:35;6.90;64.80
69677;DHT22;56914;51.058;9.326;2023-01-19T22:41:40;6.90;64.80
69677;DHT22;56914;51.058;9.326;2023-01-19T22:42:50;6.90;64.70
69677;DHT22;56914;51.058;9.326;2023-01-19T22:43:54;6.90;64.60
69677;DHT22;56914;51.058;9.326;2023-01-19T22:44:58;6.90;64.60
69677;DHT22;56914;51.058;9.326;2023-01-19T22:46:00;7.00;65.20
69677;DHT22;56914;51.058;9.326;2023-01-19T22:47:05;7.00;64.60
69677;DHT22;56914;51.058;9.326;2023-01-19T22:48:10;7.00;64.60
69677;DHT22;56914;51.058;9.326;2023-01-19T22:49:14;7.00;64.40
69677;DHT22;56914;51.058;9.326;2023-01-19T22:50:17;7.00;64.60
69677;DHT22;56914;51.058;9.326;2023-01-19T22:51:21;7.00;64.60
69677;DHT22;56914;51.058;9.326;2023-01-19T22:52:26;7.00;64.60
69677;DHT22;56914;51.058;9.326;2023-01-19T22:53:30;7.00;64.60
69677;DHT22;56914;51.058;9.326;2023-01-19T22:54:34;7.00;64.60
69677;DHT22;56914;51.058;9.326;2023-01-19T22:55:38;7.00;64.50
69677;DHT22;56914;51.058;9.326;2023-01-19T22:56:40;7.00;64.40
69677;DHT22;56914;51.058;9.326;2023-01-19T22:57:44;7.00;64.50
69677;DHT22;56914;51.058;9.326;2023-01-19T22:58:47;7.00;64.60
69677;DHT22;56914;51.058;9.326;2023-01-19T22:59:51;7.00;64.70
69677;DHT22;56914;51.058;9.326;2023-01-19T23:00:53;6.90;64.80
69677;DHT22;56914;51.058;9.326;2023-01-19T23:01:56;6.90;64.80
69677;DHT22;56914;51.058;9.326;2023-01-19T23:02:59;6.90;64.90
69677;DHT22;56914;51.058;9.326;2023-01-19T23:04:06;6.90;64.90
69677;DHT22;56914;51.058;9.326;2023-01-19T23:05:09;6.90;64.90
69677;DHT22;56914;51.058;9.326;2023-01-19T23:06:14;6.90;64.80
69677;DHT22;56914;51.058;9.326;2023-01-19T23:07:17;6.90;64.80
69677;DHT22;56914;51.058;9.326;2023-01-19T23:08:20;6.90;64.90
69677;DHT22;56914;51.058;9.326;2023-01-19T23:09:23;6.90;65.10
69677;DHT22;56914;51.058;9.326;2023-01-19T23:10:27;6.90;65.10
69677;DHT22;56914;51.058;9.326;2023-01-19T23:11:33;6.90;65.00
69677;DHT22;56914;51.058;9.326;2023-01-19T23:12:37;6.90;65.00
69677;DHT22;56914;51.058;9.326;2023-01-19T23:13:39;6.90;64.90
69677;DHT22;56914;51.058;9.326;2023-01-19T23:14:43;6.90;64.90
69677;DHT22;56914;51.058;9.326;2023-01-19T23:15:45;7.00;64.90
69677;DHT22;56914;51.058;9.326;2023-01-19T23:16:49;7.00;64.90
69677;DHT22;56914;51.058;9.326;2023-01-19T23:17:51;7.00;64.80
69677;DHT22;56914;51.058;9.326;2023-01-19T23:18:56;7.00;64.60
69677;DHT22;56914;51.058;9.326;2023-01-19T23:19:59;7.00;64.60
69677;DHT22;56914;51.058;9.326;2023-01-19T23:21:05;7.00;64.50
69677;DHT22;56914;51.058;9.326;2023-01-19T23:22:07;7.00;64.60
69677;DHT22;56914;51.058;9.326;2023-01-19T23:23:10;7.00;64.60
69677;DHT22;56914;51.058;9.326;2023-01-19T23:24:12;6.90;64.60
69677;DHT22;56914;51.058;9.326;2023-01-19T23:25:16;6.90;64.60
69677;DHT22;56914;51.058;9.326;2023-01-19T23:26:20;6.90;64.70
69677;DHT22;56914;51.058;9.326;2023-01-19T23:27:24;6.90;64.70
69677;DHT22;56914;51.058;9.326;2023-01-19T23:28:26;6.90;64.70
69677;DHT22;56914;51.058;9.326;2023-01-19T23:29:30;6.90;64.60
69677;DHT22;56914;51.058;9.326;2023-01-19T23:30:33;6.80;64.60
69677;DHT22;56914;51.058;9.326;2023-01-19T23:31:37;6.80;64.60
69677;DHT22;56914;51.058;9.326;2023-01-19T23:32:45;6.80;64.60
69677;DHT22;56914;51.058;9.326;2023-01-19T23:33:49;6.80;64.60
69677;DHT22;56914;51.058;9.326;2023-01-19T23:34:52;6.80;64.60
69677;DHT22;56914;51.058;9.326;2023-01-19T23:35:54;6.80;64.50
69677;DHT22;56914;51.058;9.326;2023-01-19T23:36:58;6.80;64.60
69677;DHT22;56914;51.058;9.326;2023-01-19T23:38:00;6.70;64.60
69677;DHT22;56914;51.058;9.326;2023-01-19T23:39:05;6.70;64.70
69677;DHT22;56914;51.058;9.326;2023-01-19T23:40:10;6.70;64.80
69677;DHT22;56914;51.058;9.326;2023-01-19T23:41:14;6.70;64.80
69677;DHT22;56914;51.058;9.326;2023-01-19T23:42:17;6.70;64.70
69677;DHT22;56914;51.058;9.326;2023-01-19T23:43:20;6.70;64.80
69677;DHT22;56914;51.058;9.326;2023-01-19T23:44:22;6.70;64.80
69677;DHT22;56914;51.058;9.326;2023-01-19T23:45:26;6.70;64.90
69677;DHT22;56914;51.058;9.326;2023-01-19T23:46:28;6.70;64.90
69677;DHT22;56914;51.058;9.326;2023-01-19T23:47:32;6.70;64.90
69677;DHT22;56914;51.058;9.326;2023-01-19T23:48:36;6.70;65.00
69677;DHT22;56914;51.058;9.326;2023-01-19T23:49:39;6.70;65.00
69677;DHT22;56914;51.058;9.326;2023-01-19T23:50:41;6.70;64.90
69677;DHT22;56914;51.058;9.326;2023-01-19T23:51:44;6.70;64.90
69677;DHT22;56914;51.058;9.326;2023-01-19T23:52:48;6.70;64.90
69677;DHT22;56914;51.058;9.326;2023-01-19T23:53:51;6.70;64.90
69677;DHT22;56914;51.058;9.326;2023-01-19T23:54:54;6.70;64.90
69677;DHT22;56914;51.058;9.326;2023-01-19T23:55:57;6.70;64.90
69677;DHT22;56914;51.058;9.326;2023-01-19T23:56:59;6.70;64.80
69677;DHT22;56914;51.058;9.326;2023-01-19T23:58:04;6.80;64.80
69677;DHT22;56914;51.058;9.326;2023-01-19T23:59:08;6.70;64.70
